Time;durP1;ratioP1;P1;durP2;ratioP2;P2;SDS_P1;SDS_P2;PMS_P1;PMS_P2;Temp;Humidity;BMP_temperature;BMP_pressure;BME280_temperature;BME280_humidity;BME280_pressure;Samples;Min_cycle;Max_cycle;Signal;HPM_P1;HPM_P2
2022/01/23 04:31:52;;;;;;;29.13;17.97;;;;;;;9.23;59.43;100440.41;7900652;23;20242;-79
2022/01/23 04:35:43;;;;;;;34.53;19.80;;;;;;;9.17;59.79;100441.03;6966789;28;20215;-79
2022/01/23 04:46:46;;;;;;;32.00;19.27;;;;;;;9.39;58.91;100445.91;6945493;28;20675;-78
2022/01/23 04:59:34;;;;;;;32.93;17.77;;;;;;;9.03;59.73;100447.81;6885914;28;20291;-79
2022/01/23 05:01:43;;;;;;;35.03;19.47;;;;;;;9.02;59.24;100436.38;6945210;28;20225;-78
2022/01/23 05:05:07;;;;;;;28.23;17.77;;;;;;;9.18;59.07;100440.88;6943216;28;20729;-79
2022/01/23 05:08:32;;;;;;;30.40;17.63;;;;;;;9.07;59.07;100452.91;6945700;28;20302;-78
2022/01/23 05:11:56;;;;;;;28.63;16.77;;;;;;;9.16;59.34;100447.41;6944199;28;20239;-78
2022/01/23 05:15:18;;;;;;;30.60;19.33;;;;;;;9.15;59.15;100461.88;6944282;28;20210;-79
2022/01/23 05:18:40;;;;;;;28.33;17.30;;;;;;;8.96;60.07;100447.75;6943027;28;20269;-79
2022/01/23 05:22:20;;;;;;;28.70;18.30;;;;;;;9.06;59.46;100454.72;6943458;28;20263;-79
2022/01/23 05:25:42;;;;;;;27.83;17.80;;;;;;;9.12;59.07;100435.28;6943310;28;20659;-79
2022/01/23 05:29:04;;;;;;;31.13;17.67;;;;;;;9.16;59.19;100461.69;6944965;28;20217;-79
2022/01/23 05:32:27;;;;;;;29.67;18.07;;;;;;;8.77;60.56;100458.69;6946338;28;20650;-80
2022/01/23 05:35:49;;;;;;;31.57;18.33;;;;;;;8.82;60.35;100457.22;6947482;28;20694;-80
2022/01/23 05:39:13;;;;;;;30.37;17.90;;;;;;;8.71;60.83;100448.53;6947871;28;20218;-80
2022/01/23 05:42:35;;;;;;;32.47;17.57;;;;;;;8.55;61.25;100467.19;6948147;28;20233;-80
2022/01/23 05:45:57;;;;;;;33.03;19.30;;;;;;;8.92;60.71;100457.13;6945273;28;20713;-79
2022/01/23 05:49:18;;;;;;;34.20;19.87;;;;;;;9.01;60.44;100459.72;6944405;28;20212;-79
2022/01/23 05:52:40;;;;;;;34.30;18.87;;;;;;;9.04;60.04;100446.81;6947408;28;20319;-81
2022/01/23 05:56:03;;;;;;;33.43;18.70;;;;;;;9.07;60.51;100471.72;6946985;28;20237;-80
2022/01/23 05:59:25;;;;;;;30.30;18.33;;;;;;;9.15;60.22;100469.97;6947708;28;20238;-80
2022/01/23 06:02:46;;;;;;;34.83;18.13;;;;;;;8.99;60.26;100465.25;6947565;28;20252;-81
2022/01/23 06:06:08;;;;;;;35.97;19.53;;;;;;;8.86;60.82;100485.50;6946613;28;20266;-80
2022/01/23 06:09:29;;;;;;;33.23;19.70;;;;;;;8.73;61.59;100500.31;6947346;28;20213;-79
2022/01/23 06:12:52;;;;;;;36.07;18.90;;;;;;;9.04;60.51;100489.84;6947384;28;20226;-81
2022/01/23 06:16:14;;;;;;;34.03;18.97;;;;;;;8.78;60.89;100495.31;6946921;28;20228;-80
2022/01/23 06:19:36;;;;;;;31.47;17.93;;;;;;;9.11;60.49;100500.84;6947139;28;20219;-80
2022/01/23 06:22:58;;;;;;;32.37;18.07;;;;;;;8.89;61.05;100506.69;6947369;28;20238;-81
2022/01/23 06:26:19;;;;;;;32.67;17.23;;;;;;;9.02;60.74;100485.63;6946604;28;20223;-82
2022/01/23 06:29:45;;;;;;;32.20;21.53;;;;;;;9.20;59.81;100500.78;6945987;28;20212;-78
2022/01/23 06:33:07;;;;;;;29.87;16.47;;;;;;;9.27;59.74;100506.38;6936178;28;20236;-80
2022/01/23 06:36:28;;;;;;;28.67;16.33;;;;;;;9.29;59.63;100507.06;6932599;28;20215;-81
2022/01/23 06:39:50;;;;;;;33.60;18.17;;;;;;;8.78;60.27;100506.91;6930880;28;20214;-80
2022/01/23 06:43:12;;;;;;;30.57;15.83;;;;;;;8.84;60.06;100483.97;6931291;28;20685;-80
2022/01/23 06:46:35;;;;;;;29.70;16.57;;;;;;;9.05;60.25;100504.16;6927090;28;20200;-81
2022/01/23 06:49:57;;;;;;;31.57;16.87;;;;;;;8.90;60.72;100500.31;6940335;28;20563;-82
2022/01/23 06:53:19;;;;;;;32.97;17.93;;;;;;;9.03;59.98;100509.69;6923496;28;20236;-81
2022/01/23 06:56:40;;;;;;;29.37;17.30;;;;;;;9.17;59.53;100513.69;6920946;28;20603;-80
2022/01/23 07:00:02;;;;;;;30.13;17.37;;;;;;;8.97;59.44;100504.09;6927711;28;20213;-85
2022/01/23 07:03:26;;;;;;;31.73;18.20;;;;;;;8.76;59.85;100470.41;6949208;28;20230;-85
2022/01/23 07:06:47;;;;;;;28.63;17.83;;;;;;;8.91;60.29;100528.91;6955156;28;20690;-85
2022/01/23 07:10:10;;;;;;;27.80;16.47;;;;;;;8.62;60.19;100536.34;6952631;28;20209;-84
2022/01/23 07:13:32;;;;;;;28.00;16.50;;;;;;;8.98;59.68;100538.91;6951383;28;20275;-83
2022/01/23 07:16:53;;;;;;;29.57;17.10;;;;;;;9.04;59.60;100542.84;6953488;28;20233;-88
2022/01/23 07:20:16;;;;;;;28.60;18.27;;;;;;;8.95;59.68;100553.69;6953193;28;20208;-85
2022/01/23 07:23:38;;;;;;;33.07;18.40;;;;;;;8.59;59.91;100455.97;6952122;28;20217;-83
2022/01/23 07:27:07;;;;;;;27.13;16.70;;;;;;;9.10;59.57;100518.00;6951836;28;20212;-86
2022/01/23 07:30:42;;;;;;;31.83;18.30;;;;;;;9.13;59.67;100558.03;6948101;28;20204;-82
2022/01/23 07:34:05;;;;;;;27.47;16.97;;;;;;;9.10;60.47;100561.88;6923478;28;20210;-85
2022/01/23 07:37:28;;;;;;;33.27;19.27;;;;;;;8.97;60.21;100527.47;6945094;28;20698;-86
2022/01/23 07:40:50;;;;;;;30.47;18.37;;;;;;;9.16;59.59;100525.47;6942665;28;20401;-83
2022/01/23 07:44:14;;;;;;;30.87;17.83;;;;;;;9.25;59.99;100556.81;6947050;28;20601;-83
2022/01/23 07:47:36;;;;;;;29.43;17.93;;;;;;;9.21;60.22;100566.22;6937446;28;20655;-85
2022/01/23 07:50:57;;;;;;;29.03;18.97;;;;;;;9.26;59.42;100548.59;6932740;28;20269;-84
2022/01/23 07:54:22;;;;;;;28.13;17.67;;;;;;;9.51;59.03;100563.13;6931112;28;20202;-84
2022/01/23 07:57:44;;;;;;;28.50;18.37;;;;;;;9.30;59.55;100576.03;6937022;28;20367;-84
2022/01/23 08:01:06;;;;;;;29.97;17.43;;;;;;;9.41;59.29;100576.69;6936051;28;20242;-83
2022/01/23 08:04:28;;;;;;;33.70;18.20;;;;;;;9.08;59.94;100574.66;6955543;28;20713;-83
2022/01/23 08:07:50;;;;;;;36.53;19.90;;;;;;;8.99;60.96;100572.88;6957121;28;20670;-82
2022/01/23 08:11:13;;;;;;;30.03;18.93;;;;;;;8.93;61.35;100575.34;6958261;28;20592;-83
2022/01/23 08:14:34;;;;;;;35.23;20.57;;;;;;;9.33;60.59;100587.34;6958815;28;20210;-83
2022/01/23 08:18:00;;;;;;;33.13;20.83;;;;;;;9.49;60.27;100576.72;6963479;28;20216;-82
2022/01/23 08:21:21;;;;;;;36.17;20.30;;;;;;;9.47;59.94;100580.56;6960689;28;20236;-83
2022/01/23 08:24:43;;;;;;;35.93;20.30;;;;;;;9.48;60.06;100591.19;6947797;28;20241;-83
2022/01/23 08:28:07;;;;;;;31.80;19.30;;;;;;;9.66;58.70;100588.47;6931970;28;20220;-83
2022/01/23 08:31:29;;;;;;;31.70;19.13;;;;;;;9.68;58.44;100571.16;6930609;28;20233;-81
2022/01/23 08:34:52;;;;;;;29.50;19.83;;;;;;;9.52;58.16;100559.41;6930786;28;20211;-81
2022/01/23 08:38:14;;;;;;;33.40;20.03;;;;;;;8.90;58.89;100494.09;6931073;28;20213;-82
2022/01/23 08:41:51;;;;;;;30.87;19.40;;;;;;;9.55;58.22;100556.41;6931683;28;20254;-83
2022/01/23 08:45:14;;;;;;;35.87;20.40;;;;;;;9.88;57.58;100596.94;6930782;28;20234;-82
2022/01/23 08:48:37;;;;;;;31.73;19.73;;;;;;;9.83;57.83;100593.84;6930365;28;20215;-83
2022/01/23 08:51:59;;;;;;;31.37;20.37;;;;;;;9.86;57.67;100596.22;6934084;28;20283;-82
2022/01/23 08:55:21;;;;;;;32.20;20.10;;;;;;;10.04;57.20;100598.91;6955909;28;20550;-82
2022/01/23 08:58:43;;;;;;;36.33;21.63;;;;;;;9.62;58.54;100587.13;6953390;28;20671;-83
2022/01/23 09:02:07;;;;;;;34.27;20.90;;;;;;;9.92;58.09;100579.41;6952995;28;20387;-83
2022/01/23 09:05:29;;;;;;;32.53;20.40;;;;;;;10.07;57.55;100585.97;6955522;28;20234;-83
2022/01/23 09:08:53;;;;;;;34.20;20.13;;;;;;;10.17;57.34;100585.84;6956710;28;20210;-82
2022/01/23 09:12:30;;;;;;;29.10;19.73;;;;;;;10.30;56.23;100560.16;6957540;28;20226;-82
2022/01/23 09:15:52;;;;;;;31.03;19.53;;;;;;;10.28;56.17;100562.16;6957144;28;20295;-81
2022/01/23 09:19:17;;;;;;;35.23;22.07;;;;;;;10.04;57.05;100567.41;6956282;28;20195;-83
2022/01/23 09:22:39;;;;;;;34.00;21.10;;;;;;;10.22;57.08;100570.06;6956784;28;20329;-82
2022/01/23 09:26:07;;;;;;;32.50;21.00;;;;;;;10.39;56.78;100582.63;6955239;28;20237;-83
2022/01/23 09:29:33;;;;;;;34.67;20.40;;;;;;;9.98;57.24;100562.63;6956766;28;20194;-83
2022/01/23 09:32:54;;;;;;;33.10;19.77;;;;;;;10.54;56.85;100575.59;6954980;28;20247;-81
2022/01/23 09:36:18;;;;;;;27.57;17.27;;;;;;;10.90;54.77;100564.44;6952425;28;20203;-83
2022/01/23 09:39:41;;;;;;;27.73;18.33;;;;;;;10.73;55.26;100569.94;6953456;28;20207;-82
2022/01/23 09:43:07;;;;;;;28.70;18.93;;;;;;;10.60;56.19;100565.00;6954531;28;20781;-85
2022/01/23 09:46:28;;;;;;;29.23;18.60;;;;;;;10.85;55.58;100574.00;6955262;28;20291;-83
2022/01/23 09:49:52;;;;;;;28.40;18.27;;;;;;;10.86;54.73;100557.66;6955925;28;20202;-85
2022/01/23 09:53:16;;;;;;;26.73;18.20;;;;;;;10.59;54.25;100578.66;6955302;28;20236;-83
2022/01/23 09:56:37;;;;;;;27.90;18.63;;;;;;;10.25;55.30;100556.22;6953112;28;20206;-82
2022/01/23 10:00:00;;;;;;;25.00;15.97;;;;;;;10.23;55.51;100574.44;6954627;28;20203;-83
2022/01/23 10:03:22;;;;;;;24.27;16.37;;;;;;;10.28;55.76;100582.88;6954563;28;20237;-81
2022/01/23 10:06:43;;;;;;;21.07;15.33;;;;;;;10.72;54.91;100585.28;6953062;28;20227;-83
2022/01/23 10:10:14;;;;;;;26.50;17.60;;;;;;;10.12;55.31;100512.72;6952884;28;20213;-82
2022/01/23 10:13:35;;;;;;;24.40;16.37;;;;;;;10.34;55.17;100557.97;6952733;28;20217;-82
2022/01/23 10:16:57;;;;;;;21.83;15.60;;;;;;;10.49;54.92;100581.47;6952809;28;20218;-82
2022/01/23 10:20:19;;;;;;;23.07;15.27;;;;;;;10.42;54.62;100548.09;6953304;28;20214;-83
2022/01/23 10:23:41;;;;;;;22.13;15.97;;;;;;;10.21;54.48;100565.66;6956191;28;20225;-82
2022/01/23 10:27:05;;;;;;;20.20;13.83;;;;;;;10.49;54.60;100572.53;6952739;28;20227;-81
2022/01/23 10:30:28;;;;;;;23.63;16.67;;;;;;;10.23;55.75;100569.91;6948466;28;20197;-80
2022/01/23 10:33:50;;;;;;;24.07;16.07;;;;;;;10.18;56.18;100584.84;6941690;28;20209;-80
2022/01/23 10:37:13;;;;;;;22.93;14.87;;;;;;;10.81;54.57;100573.50;6944938;28;20198;-80
2022/01/23 10:40:46;;;;;;;23.50;15.70;;;;;;;10.64;54.80;100577.16;6945399;28;20377;-80
2022/01/23 10:47:55;;;;;;;24.77;16.17;;;;;;;10.69;53.89;100582.06;6946298;28;20609;-80
2022/01/23 10:51:25;;;;;;;22.60;15.33;;;;;;;10.56;55.50;100569.03;6944790;28;20306;-79
2022/01/23 10:54:47;;;;;;;22.90;15.47;;;;;;;10.85;54.92;100563.22;6945526;28;20321;-80
2022/01/23 10:58:20;;;;;;;21.20;14.80;;;;;;;10.50;54.58;100556.19;6945133;28;20567;-80
2022/01/23 11:02:00;;;;;;;21.13;14.50;;;;;;;10.58;54.75;100531.94;6945295;28;20214;-80
2022/01/23 11:05:31;;;;;;;19.67;13.93;;;;;;;10.86;54.51;100536.06;6942688;28;20219;-80
2022/01/23 11:09:07;;;;;;;19.83;13.60;;;;;;;11.17;53.42;100528.22;6944380;28;20702;-80
2022/01/23 11:12:45;;;;;;;20.63;14.37;;;;;;;11.35;52.96;100555.91;6943907;28;20238;-80
2022/01/23 11:19:48;;;;;;;19.10;13.30;;;;;;;11.09;52.99;100514.72;6943838;28;20285;-80
2022/01/23 11:23:15;;;;;;;18.37;13.03;;;;;;;11.37;53.63;100543.94;6943945;28;20726;-80
2022/01/23 11:26:37;;;;;;;21.03;14.83;;;;;;;11.24;54.28;100548.13;6943424;28;20250;-82
2022/01/23 11:30:03;;;;;;;18.30;13.40;;;;;;;10.95;54.70;100547.75;6943856;28;20207;-80
2022/01/23 11:33:26;;;;;;;18.23;13.30;;;;;;;10.59;54.77;100530.97;6946644;28;20237;-80
2022/01/23 11:36:51;;;;;;;18.27;13.37;;;;;;;10.93;53.46;100509.28;6941968;28;20214;-80
2022/01/23 11:40:35;;;;;;;17.77;12.77;;;;;;;11.31;53.01;100531.09;6942604;28;20206;-80
2022/01/23 11:55:00;;;;;;;15.90;12.30;;;;;;;11.05;53.42;100499.84;6924008;28;20199;-81
2022/01/23 11:58:35;;;;;;;16.67;11.30;;;;;;;11.45;52.18;100522.31;6922579;28;20662;-78
2022/01/23 12:02:26;;;;;;;14.90;10.37;;;;;;;11.53;51.68;100524.19;6924793;28;20233;-80
2022/01/23 12:05:49;;;;;;;16.20;11.23;;;;;;;11.54;52.44;100524.00;6930855;28;20231;-79
2022/01/23 12:09:17;;;;;;;16.37;11.53;;;;;;;11.23;51.62;100503.25;6944490;28;20209;-79
2022/01/23 12:12:44;;;;;;;14.60;10.60;;;;;;;11.69;52.87;100529.59;6930453;28;20371;-80
2022/01/23 12:16:26;;;;;;;14.33;10.17;;;;;;;11.66;52.33;100502.91;6933913;28;20210;-83
2022/01/23 12:19:54;;;;;;;15.07;11.30;;;;;;;11.53;52.26;100518.78;6937451;28;20223;-79
2022/01/23 12:23:16;;;;;;;14.77;10.10;;;;;;;12.05;51.89;100503.84;6930201;28;20226;-80
2022/01/23 12:26:38;;;;;;;10.70;8.50;;;;;;;11.39;47.63;100471.66;6927187;28;20224;-81
2022/01/23 12:30:30;;;;;;;11.87;8.53;;;;;;;11.31;49.39;100417.69;6929285;28;20210;-79
2022/01/23 12:33:54;;;;;;;10.93;8.27;;;;;;;11.71;48.25;100498.69;6940455;28;20305;-78
2022/01/23 12:37:15;;;;;;;12.47;9.77;;;;;;;11.86;49.61;100491.56;6942180;28;20214;-81
2022/01/23 12:40:43;;;;;;;11.07;8.80;;;;;;;12.08;49.87;100487.28;6944570;28;20258;-80
2022/01/23 12:44:07;;;;;;;12.77;8.90;;;;;;;12.53;47.38;100495.56;6940492;28;20210;-79
2022/01/23 12:47:29;;;;;;;9.37;7.00;;;;;;;11.72;46.55;100496.81;6946890;28;20291;-80
2022/01/23 12:50:52;;;;;;;9.90;7.37;;;;;;;11.35;48.05;100500.06;6946808;28;20234;-79
2022/01/23 12:54:27;;;;;;;7.70;6.90;;;;;;;11.42;48.30;100486.69;6945470;28;20198;-80
2022/01/23 12:57:49;;;;;;;13.00;7.93;;;;;;;11.58;47.50;100486.69;6934272;28;20208;-81
2022/01/23 13:01:19;;;;;;;13.17;8.20;;;;;;;11.34;48.91;100500.22;6945284;28;20234;-79
2022/01/23 13:04:44;;;;;;;11.00;7.80;;;;;;;10.84;49.15;100496.78;6943556;28;20667;-81
2022/01/23 13:08:22;;;;;;;6.70;5.93;;;;;;;10.60;47.93;100500.28;6944531;28;20216;-80
2022/01/23 13:12:04;;;;;;;7.40;6.57;;;;;;;11.19;47.53;100491.09;6948330;28;20227;-84
2022/01/23 13:19:23;;;;;;;7.43;6.13;;;;;;;11.92;46.90;100482.75;6947746;28;20269;-81
2022/01/23 13:27:01;;;;;;;8.53;6.30;;;;;;;12.04;45.57;100473.25;6944675;28;20625;-79
2022/01/23 13:30:25;;;;;;;6.00;5.07;;;;;;;11.51;45.44;100470.31;6944537;28;20616;-78
2022/01/23 13:33:47;;;;;;;4.20;3.80;;;;;;;11.37;42.83;100464.75;6944177;28;20192;-79
2022/01/23 13:37:10;;;;;;;5.13;4.33;;;;;;;11.27;45.57;100466.81;6944551;28;20202;-81
2022/01/23 13:40:38;;;;;;;4.90;4.40;;;;;;;11.11;44.75;100464.91;6923214;28;20207;-84
2022/01/23 13:48:03;;;;;;;5.10;4.60;;;;;;;11.40;44.71;100459.84;6919032;28;20227;-81
2022/01/23 13:51:42;;;;;;;6.90;5.07;;;;;;;11.13;45.25;100470.16;6916141;28;20241;-79
2022/01/23 13:58:52;;;;;;;6.50;5.60;;;;;;;10.94;47.12;100455.16;6945805;28;20207;-82
2022/01/23 14:02:21;;;;;;;7.10;5.77;;;;;;;10.22;48.14;100468.44;6946008;28;20229;-82
2022/01/23 14:05:42;;;;;;;6.50;5.53;;;;;;;10.34;47.33;100455.53;6945830;28;20230;-82
2022/01/23 14:09:06;;;;;;;6.97;5.93;;;;;;;10.65;47.23;100456.63;6943069;28;20672;-79
2022/01/23 14:12:33;;;;;;;8.10;6.03;;;;;;;11.12;47.95;100449.59;6945395;28;20231;-84
2022/01/23 14:15:56;;;;;;;7.17;6.10;;;;;;;11.48;45.83;100449.06;6916432;28;20203;-81
2022/01/23 14:19:20;;;;;;;7.83;6.43;;;;;;;11.58;46.41;100441.63;6915886;28;20240;-80
2022/01/23 14:22:44;;;;;;;8.77;6.77;;;;;;;11.01;47.09;100448.06;6915792;28;20259;-79
2022/01/23 14:26:08;;;;;;;8.07;6.27;;;;;;;10.94;45.92;100452.47;6921000;28;20365;-80
2022/01/23 14:29:32;;;;;;;7.20;6.10;;;;;;;10.29;47.69;100450.63;6942961;28;20209;-77
2022/01/23 14:33:04;;;;;;;9.97;7.70;;;;;;;10.22;49.09;100446.88;6944949;28;20704;-82
2022/01/23 14:36:27;;;;;;;8.00;6.43;;;;;;;10.37;49.09;100466.81;6945469;28;20255;-85
2022/01/23 14:39:48;;;;;;;7.63;6.37;;;;;;;10.82;48.11;100447.53;6943275;28;20305;-83
2022/01/23 14:43:12;;;;;;;7.47;5.70;;;;;;;10.97;48.18;100440.44;6945051;28;20247;-83
2022/01/23 14:46:34;;;;;;;7.37;5.97;;;;;;;11.21;47.98;100453.97;6944275;28;20262;-81
2022/01/23 14:49:59;;;;;;;8.00;5.73;;;;;;;11.09;46.97;100458.84;6949989;28;20213;-83
2022/01/23 14:53:23;;;;;;;6.07;5.20;;;;;;;11.51;45.72;100454.09;6945162;28;20231;-83
2022/01/23 14:56:44;;;;;;;4.07;3.63;;;;;;;10.63;45.62;100455.94;6945967;28;20213;-80
2022/01/23 15:00:08;;;;;;;3.83;3.53;;;;;;;11.18;45.72;100465.97;6943636;28;20211;-83
2022/01/23 15:03:31;;;;;;;4.13;3.10;;;;;;;10.29;44.28;100452.47;6946390;28;20229;-80
2022/01/23 15:06:54;;;;;;;3.13;2.83;;;;;;;10.30;46.03;100468.50;6945754;28;20238;-82
2022/01/23 15:10:16;;;;;;;3.20;2.90;;;;;;;11.09;45.23;100458.03;6946108;28;20233;-83
2022/01/23 15:13:37;;;;;;;3.40;2.60;;;;;;;10.88;44.35;100454.97;6938600;28;20677;-82
2022/01/23 15:16:59;;;;;;;4.60;3.43;;;;;;;10.94;43.58;100459.69;6946033;28;20209;-82
2022/01/23 15:20:21;;;;;;;3.37;3.07;;;;;;;10.48;44.49;100476.47;6946108;28;20204;-82
2022/01/23 15:23:44;;;;;;;3.73;3.30;;;;;;;10.38;44.29;100452.31;6949742;28;20247;-84
2022/01/23 15:27:06;;;;;;;4.33;3.00;;;;;;;10.26;45.33;100444.69;6945852;28;20237;-83
2022/01/23 15:30:28;;;;;;;4.37;2.90;;;;;;;10.69;45.01;100464.19;6937732;28;20214;-84
2022/01/23 15:33:49;;;;;;;4.07;3.63;;;;;;;10.75;45.62;100454.63;6916157;28;20209;-82
2022/01/23 15:37:13;;;;;;;3.60;3.30;;;;;;;10.64;44.49;100465.72;6915907;28;20202;-84
2022/01/23 15:40:36;;;;;;;3.90;3.27;;;;;;;10.65;44.82;100465.56;6933713;28;20227;-82
2022/01/23 15:43:57;;;;;;;3.47;3.17;;;;;;;10.19;45.92;100478.72;6943831;28;20210;-84
2022/01/23 15:47:19;;;;;;;3.63;3.20;;;;;;;10.55;45.21;100467.56;6943987;28;20311;-85
2022/01/23 15:50:41;;;;;;;4.43;3.27;;;;;;;10.49;45.60;100476.31;6934548;28;20823;-83
2022/01/23 15:54:03;;;;;;;3.50;3.20;;;;;;;10.87;45.18;100473.00;6941581;28;20675;-84
2022/01/23 15:57:26;;;;;;;3.10;2.80;;;;;;;10.78;44.44;100484.81;6943450;28;20329;-80
2022/01/23 16:00:48;;;;;;;4.23;3.20;;;;;;;10.25;45.93;100473.53;6940721;28;20256;-82
2022/01/23 16:04:10;;;;;;;3.40;3.10;;;;;;;10.33;45.70;100468.16;6943704;28;20203;-82
2022/01/23 16:07:31;;;;;;;3.50;3.20;;;;;;;10.20;46.43;100489.34;6938847;28;20256;-81
2022/01/23 16:10:53;;;;;;;4.63;3.50;;;;;;;10.67;46.38;100482.41;6921172;28;20238;-83
2022/01/23 16:14:17;;;;;;;4.87;3.97;;;;;;;9.94;47.13;100421.16;6944576;28;20284;-82
2022/01/23 16:17:39;;;;;;;4.63;3.30;;;;;;;10.07;47.85;100483.56;6946953;28;20749;-82
2022/01/23 16:21:01;;;;;;;3.20;2.90;;;;;;;10.55;47.60;100482.88;6948397;28;20231;-81
2022/01/23 16:24:23;;;;;;;3.20;2.83;;;;;;;10.12;48.41;100483.06;6952488;28;20293;-83
2022/01/23 16:27:45;;;;;;;3.53;2.97;;;;;;;10.10;48.01;100433.88;6928135;28;20698;-83
2022/01/23 16:31:09;;;;;;;3.77;3.40;;;;;;;10.36;47.59;100477.78;6927116;28;20241;-82
2022/01/23 16:34:31;;;;;;;3.67;3.37;;;;;;;9.54;48.41;100490.94;6927228;28;20205;-82
2022/01/23 16:37:53;;;;;;;5.53;4.10;;;;;;;9.71;48.53;100489.19;6934296;28;20206;-81
2022/01/23 16:41:15;;;;;;;4.53;3.80;;;;;;;9.90;47.92;100487.13;6943845;28;20250;-84
2022/01/23 16:44:36;;;;;;;6.07;5.07;;;;;;;10.37;47.62;100490.22;6939077;28;20206;-84
2022/01/23 16:47:59;;;;;;;6.03;4.20;;;;;;;10.56;48.29;100481.91;6940427;28;20674;-82
2022/01/23 16:51:21;;;;;;;5.07;3.97;;;;;;;10.47;48.83;100466.69;6950335;28;20988;-83
2022/01/23 16:54:45;;;;;;;10.03;6.07;;;;;;;10.34;51.25;100448.25;6946450;28;20199;-86
2022/01/23 16:58:07;;;;;;;10.63;6.33;;;;;;;10.46;49.80;100456.91;6937071;28;20217;-84
2022/01/23 17:01:29;;;;;;;10.07;7.77;;;;;;;10.22;50.04;100492.69;6943705;28;20219;-84
2022/01/23 17:04:52;;;;;;;9.10;7.83;;;;;;;10.69;48.75;100482.25;6934223;28;20687;-83
2022/01/23 17:08:14;;;;;;;6.83;6.13;;;;;;;10.72;47.58;100490.88;6943481;28;20258;-82
2022/01/23 17:11:35;;;;;;;6.53;4.70;;;;;;;10.42;47.28;100459.09;6947977;28;20288;-81
2022/01/23 17:14:58;;;;;;;4.63;3.50;;;;;;;10.51;46.60;100478.84;6949891;28;20688;-85
2022/01/23 17:18:19;;;;;;;4.20;3.80;;;;;;;10.45;46.68;100468.72;6952441;28;20343;-82
2022/01/23 17:21:44;;;;;;;5.43;4.10;;;;;;;10.25;48.53;100472.66;6949962;28;20227;-82
2022/01/23 17:25:06;;;;;;;5.70;4.83;;;;;;;10.08;49.49;100469.06;6941958;28;20217;-79
2022/01/23 17:28:28;;;;;;;8.13;6.37;;;;;;;10.36;49.06;100453.50;6945348;28;20235;-80
2022/01/23 17:31:50;;;;;;;7.40;6.07;;;;;;;10.39;47.88;100451.31;6937100;28;20239;-81
2022/01/23 17:35:11;;;;;;;21.50;13.53;;;;;;;10.36;49.04;100461.59;6943744;28;20205;-83
2022/01/23 17:38:36;;;;;;;9.00;8.10;;;;;;;10.37;48.56;100456.03;6932494;28;20227;-82
2022/01/23 17:41:58;;;;;;;8.13;6.53;;;;;;;10.11;49.46;100411.31;6936079;28;20239;-85
2022/01/23 17:45:26;;;;;;;6.73;5.77;;;;;;;10.32;49.57;100453.00;6937717;28;20206;-83
2022/01/23 17:48:51;;;;;;;7.33;6.27;;;;;;;10.44;49.09;100450.81;6948015;28;20225;-83
2022/01/23 17:52:12;;;;;;;7.10;5.97;;;;;;;10.37;50.03;100477.59;6949281;28;20371;-83
2022/01/23 17:55:35;;;;;;;11.30;8.90;;;;;;;10.29;50.50;100472.19;6948114;28;20268;-81
2022/01/23 17:58:58;;;;;;;9.13;7.50;;;;;;;10.41;49.83;100468.19;6947880;28;20205;-83
2022/01/23 18:02:20;;;;;;;8.50;7.40;;;;;;;10.16;48.91;100469.09;6945592;28;20320;-81
2022/01/23 18:05:42;;;;;;;8.60;7.70;;;;;;;10.18;49.20;100448.22;6944512;28;20212;-82
2022/01/23 18:09:07;;;;;;;7.60;6.90;;;;;;;10.40;47.61;100471.06;6947213;28;20577;-81
2022/01/23 18:12:30;;;;;;;4.47;4.07;;;;;;;9.95;48.41;100482.13;6943772;28;20255;-79
2022/01/23 18:15:52;;;;;;;6.47;5.73;;;;;;;9.97;48.88;100461.22;6942927;28;20315;-81
2022/01/23 18:19:14;;;;;;;5.30;4.80;;;;;;;9.89;48.36;100479.19;6943168;28;20211;-79
2022/01/23 18:22:35;;;;;;;5.60;5.00;;;;;;;9.34;49.23;100438.28;6943609;28;20714;-79
2022/01/23 18:25:57;;;;;;;5.33;4.20;;;;;;;10.10;47.60;100485.91;6942735;28;20246;-79
2022/01/23 18:29:20;;;;;;;5.23;4.03;;;;;;;10.07;47.18;100478.16;6943052;28;20234;-77
2022/01/23 18:32:42;;;;;;;5.37;4.63;;;;;;;9.57;47.75;100481.72;6942427;28;20372;-79
2022/01/23 18:36:04;;;;;;;7.10;5.23;;;;;;;9.96;46.59;100478.41;6942711;28;20207;-79
2022/01/23 18:39:27;;;;;;;4.53;3.90;;;;;;;9.55;46.84;100495.31;6942762;28;20543;-79
2022/01/23 18:42:49;;;;;;;3.83;3.53;;;;;;;9.20;47.38;100498.06;6942739;28;20318;-80
2022/01/23 18:46:12;;;;;;;4.17;3.77;;;;;;;9.73;46.58;100484.50;6948095;28;20215;-81
2022/01/23 18:49:33;;;;;;;5.40;4.70;;;;;;;9.59;47.28;100487.78;6946186;28;20294;-78
2022/01/23 18:53:00;;;;;;;6.40;4.60;;;;;;;9.76;47.61;100492.25;6933837;28;20227;-80
2022/01/23 18:56:22;;;;;;;6.20;5.30;;;;;;;9.88;46.99;100477.53;6941673;28;20329;-79
2022/01/23 18:59:49;;;;;;;5.53;5.03;;;;;;;9.66;48.59;100481.59;6941130;28;20360;-79
2022/01/23 19:03:22;;;;;;;6.10;4.97;;;;;;;9.47;48.15;100471.03;6940900;28;20307;-79
2022/01/23 19:06:47;;;;;;;5.93;5.33;;;;;;;8.86;49.68;100466.66;6944693;28;20214;-77
2022/01/23 19:10:09;;;;;;;6.00;5.40;;;;;;;9.05;50.32;100493.41;6942231;28;20198;-78
2022/01/23 19:13:31;;;;;;;5.93;5.30;;;;;;;8.77;50.36;100501.72;6941936;28;20229;-80
2022/01/23 19:16:53;;;;;;;6.70;6.03;;;;;;;8.88;51.16;100483.50;6942764;28;20682;-78
2022/01/23 19:20:18;;;;;;;7.87;6.13;;;;;;;8.75;51.41;100496.47;6944593;28;20211;-79
2022/01/23 19:23:42;;;;;;;7.20;6.27;;;;;;;9.35;50.07;100495.69;6943383;28;20210;-78
2022/01/23 19:27:04;;;;;;;6.20;5.53;;;;;;;9.59;49.06;100464.41;6942442;28;20317;-78
2022/01/23 19:30:26;;;;;;;7.93;5.97;;;;;;;9.79;48.53;100483.84;6935257;28;20210;-79
2022/01/23 19:33:50;;;;;;;17.03;11.40;;;;;;;9.62;48.50;100449.78;6925371;28;20202;-78
2022/01/23 19:37:12;;;;;;;8.70;6.67;;;;;;;9.13;49.89;100496.16;6928370;28;20652;-78
2022/01/23 19:40:41;;;;;;;7.73;6.63;;;;;;;9.19;50.02;100504.47;6929421;28;20230;-78
2022/01/23 19:44:10;;;;;;;6.00;5.50;;;;;;;9.58;48.72;100496.84;6927745;28;20197;-78
2022/01/23 19:47:43;;;;;;;6.87;5.70;;;;;;;9.82;47.55;100495.19;6927035;28;20739;-78
2022/01/23 19:51:06;;;;;;;5.73;5.13;;;;;;;9.49;48.87;100511.25;6927199;28;20217;-77
2022/01/23 19:54:29;;;;;;;7.27;6.03;;;;;;;9.80;48.60;100502.56;6926051;28;20215;-78
2022/01/23 19:57:51;;;;;;;5.87;5.27;;;;;;;8.89;50.32;100503.19;6931343;28;20651;-78
2022/01/23 20:01:13;;;;;;;6.20;5.50;;;;;;;9.43;50.09;100493.03;6943552;28;20226;-82
2022/01/23 20:04:34;;;;;;;8.10;6.17;;;;;;;9.73;49.12;100497.94;6941548;28;20205;-81
2022/01/23 20:07:56;;;;;;;6.03;5.53;;;;;;;9.93;48.15;100481.41;6943054;28;20258;-80
2022/01/23 20:12:43;;;;;;;10.67;9.53;;;;;;;9.45;49.25;100491.88;6944669;28;20237;-81
2022/01/23 20:15:01;;;;;;;6.40;5.00;;;;;;;9.55;48.96;100481.88;6944027;28;20220;-81
2022/01/23 20:18:22;;;;;;;6.33;5.73;;;;;;;8.80;50.97;100479.88;6943773;28;20675;-81
2022/01/23 20:21:50;;;;;;;6.20;5.30;;;;;;;8.94;50.39;100469.41;6940458;28;20238;-82
2022/01/23 20:25:13;;;;;;;6.90;5.80;;;;;;;8.29;51.69;100434.81;6943923;28;20252;-81
2022/01/23 20:28:36;;;;;;;5.63;5.00;;;;;;;8.50;52.69;100496.34;6947139;28;20229;-81
2022/01/23 20:31:59;;;;;;;6.33;5.50;;;;;;;8.42;52.76;100497.09;6947708;28;20653;-81
2022/01/23 20:35:21;;;;;;;6.30;5.70;;;;;;;8.42;52.34;100489.03;6947498;28;20209;-80
2022/01/23 20:38:45;;;;;;;6.53;5.57;;;;;;;8.88;51.19;100477.25;6948072;28;20211;-84
2022/01/23 20:42:09;;;;;;;6.20;5.27;;;;;;;8.48;52.09;100482.22;6955993;28;20224;-83
2022/01/23 20:45:32;;;;;;;6.00;5.40;;;;;;;8.79;52.19;100492.47;6975452;28;20561;-83
2022/01/23 20:48:54;;;;;;;7.53;5.73;;;;;;;8.23;53.03;100475.72;6957795;28;20235;-83
2022/01/23 20:52:35;;;;;;;6.83;5.63;;;;;;;8.20;53.78;100488.63;6951733;28;20242;-82
2022/01/23 20:55:57;;;;;;;7.80;5.63;;;;;;;8.28;52.86;100489.56;6952645;28;20283;-83
2022/01/23 20:59:19;;;;;;;6.50;5.73;;;;;;;8.32;53.19;100490.94;6951085;28;20212;-83
2022/01/23 21:02:45;;;;;;;7.93;5.73;;;;;;;8.21;53.49;100461.59;6949143;28;20220;-83
2022/01/23 21:06:06;;;;;;;7.33;6.20;;;;;;;8.46;53.32;100486.91;6951981;28;20546;-82